TCISK LTCG-LTAU
Flight info
| Callsign | TCISK |
|---|---|
| Flight time | 0h 40m |
| Altitude | 34000 |
| Route | TEMEL1M/29 TEMEL DCT ATRIV UT284 SIV UA285 TIRMA |
| Aircraft | C750/M-SBDE3FGHRWXY/S |
Departure
| Time | 2026-05-05 17:56 |
|---|---|
| Airport | Trabzon International Airport (LTCG) |
Arrival
| Time | 2026-05-05 18:37 |
|---|---|
| Airport | Kayseri Erkilet International Airport (LTAU) |
| Time | Latitude | Longitude | Altitude | Speed | Heading |
|---|---|---|---|---|---|
| 2026-05-05 17:36 | 40.99550 | 39.78131 | 112 ft | 0 kts | 202° |
| 2026-05-05 17:50 | 40.99566 | 39.78139 | 110 ft | 3 kts | 202° |
| 2026-05-05 17:50 | 40.99577 | 39.78146 | 109 ft | 0 kts | 202° |
| 2026-05-05 17:53 | 40.99565 | 39.78153 | 111 ft | 6 kts | 137° |
| 2026-05-05 17:53 | 40.99564 | 39.78241 | 112 ft | 13 kts | 81° |
| 2026-05-05 17:53 | 40.99551 | 39.78365 | 112 ft | 15 kts | 111° |
| 2026-05-05 17:53 | 40.99502 | 39.78519 | 111 ft | 20 kts | 112° |
| 2026-05-05 17:54 | 40.99445 | 39.78702 | 111 ft | 23 kts | 112° |
| 2026-05-05 17:54 | 40.99389 | 39.78881 | 111 ft | 19 kts | 112° |
| 2026-05-05 17:54 | 40.99339 | 39.79046 | 102 ft | 16 kts | 111° |
| 2026-05-05 17:54 | 40.99352 | 39.79175 | 100 ft | 13 kts | 68° |
| 2026-05-05 17:55 | 40.99389 | 39.79248 | 102 ft | 8 kts | 20° |
| 2026-05-05 17:55 | 40.99436 | 39.79206 | 102 ft | 8 kts | 290° |
| 2026-05-05 17:55 | 40.99454 | 39.79146 | 100 ft | 17 kts | 292° |
| 2026-05-05 17:55 | 40.99644 | 39.78538 | 106 ft | 126 kts | 293° |
| 2026-05-05 17:56 | 41.00014 | 39.77368 | 641 ft | 140 kts | 293° |
| 2026-05-05 17:56 | 41.00388 | 39.76145 | 1331 ft | 151 kts | 291° |
| 2026-05-05 17:56 | 41.00822 | 39.74780 | 1845 ft | 172 kts | 296° |
| 2026-05-05 17:56 | 41.01420 | 39.73234 | 2331 ft | 204 kts | 296° |
| 2026-05-05 17:57 | 41.02049 | 39.71420 | 3070 ft | 229 kts | 294° |
| 2026-05-05 17:57 | 41.02719 | 39.69374 | 3809 ft | 254 kts | 293° |
| 2026-05-05 17:57 | 41.03415 | 39.67185 | 4895 ft | 260 kts | 292° |
| 2026-05-05 17:57 | 41.04135 | 39.64956 | 5906 ft | 268 kts | 294° |
| 2026-05-05 17:58 | 41.04896 | 39.62656 | 6893 ft | 277 kts | 294° |
| 2026-05-05 17:58 | 41.05672 | 39.60299 | 7987 ft | 281 kts | 293° |
| 2026-05-05 17:58 | 41.06346 | 39.57845 | 8897 ft | 290 kts | 281° |
| 2026-05-05 17:58 | 41.06148 | 39.55191 | 9868 ft | 290 kts | 251° |
| 2026-05-05 17:59 | 41.05452 | 39.52692 | 10626 ft | 302 kts | 246° |
| 2026-05-05 17:59 | 41.04619 | 39.50013 | 10925 ft | 328 kts | 245° |
| 2026-05-05 17:59 | 41.03725 | 39.47062 | 11134 ft | 353 kts | 247° |
| 2026-05-05 17:59 | 41.03047 | 39.43962 | 11815 ft | 359 kts | 262° |
| 2026-05-05 18:00 | 41.03166 | 39.40657 | 12657 ft | 360 kts | 276° |
| 2026-05-05 18:00 | 41.03500 | 39.37353 | 13446 ft | 364 kts | 277° |
| 2026-05-05 18:00 | 41.03839 | 39.34012 | 14183 ft | 367 kts | 276° |
| 2026-05-05 18:00 | 41.04149 | 39.30635 | 14865 ft | 371 kts | 275° |
| 2026-05-05 18:01 | 41.04454 | 39.27276 | 15507 ft | 359 kts | 275° |
| 2026-05-05 18:01 | 41.04764 | 39.23998 | 16467 ft | 350 kts | 276° |
| 2026-05-05 18:01 | 41.05066 | 39.20848 | 17733 ft | 345 kts | 275° |
| 2026-05-05 18:01 | 41.05360 | 39.17644 | 18452 ft | 353 kts | 275° |
| 2026-05-05 18:02 | 41.05427 | 39.14383 | 19113 ft | 355 kts | 259° |
| 2026-05-05 18:02 | 41.04648 | 39.11356 | 19918 ft | 351 kts | 240° |
| 2026-05-05 18:02 | 41.03425 | 39.08552 | 20731 ft | 352 kts | 236° |
| 2026-05-05 18:02 | 41.02133 | 39.05775 | 21513 ft | 356 kts | 236° |
| 2026-05-05 18:03 | 41.00841 | 39.02955 | 22306 ft | 360 kts | 236° |
| 2026-05-05 18:03 | 40.99559 | 39.00088 | 23097 ft | 363 kts | 237° |
| 2026-05-05 18:03 | 40.98257 | 38.97194 | 23825 ft | 367 kts | 236° |
| 2026-05-05 18:03 | 40.96932 | 38.94288 | 24480 ft | 370 kts | 236° |
| 2026-05-05 18:04 | 40.95593 | 38.91348 | 25132 ft | 374 kts | 236° |
| 2026-05-05 18:04 | 40.94265 | 38.88422 | 25783 ft | 377 kts | 236° |
| 2026-05-05 18:04 | 40.92905 | 38.85423 | 26460 ft | 381 kts | 236° |
| 2026-05-05 18:04 | 40.91528 | 38.82403 | 27125 ft | 385 kts | 236° |
| 2026-05-05 18:05 | 40.90141 | 38.79362 | 27774 ft | 388 kts | 236° |
| 2026-05-05 18:05 | 40.88737 | 38.76284 | 28481 ft | 392 kts | 236° |
| 2026-05-05 18:05 | 40.87321 | 38.73180 | 29171 ft | 395 kts | 236° |
| 2026-05-05 18:05 | 40.85909 | 38.70090 | 29836 ft | 400 kts | 236° |
| 2026-05-05 18:06 | 40.84461 | 38.66928 | 30413 ft | 404 kts | 236° |
| 2026-05-05 18:06 | 40.83492 | 38.64813 | 30742 ft | 407 kts | 236° |
| 2026-05-05 18:06 | 40.81511 | 38.60492 | 31373 ft | 414 kts | 236° |
| 2026-05-05 18:06 | 40.80007 | 38.57214 | 31854 ft | 419 kts | 236° |
| 2026-05-05 18:07 | 40.78503 | 38.53942 | 32322 ft | 424 kts | 236° |
| 2026-05-05 18:07 | 40.76962 | 38.50591 | 32825 ft | 428 kts | 236° |
| 2026-05-05 18:07 | 40.75403 | 38.47206 | 33268 ft | 434 kts | 236° |
| 2026-05-05 18:07 | 40.73827 | 38.43789 | 33709 ft | 439 kts | 236° |
| 2026-05-05 18:08 | 40.72229 | 38.40326 | 34044 ft | 447 kts | 237° |
| 2026-05-05 18:08 | 40.70581 | 38.36761 | 34044 ft | 461 kts | 237° |
| 2026-05-05 18:08 | 40.68907 | 38.33143 | 34048 ft | 474 kts | 237° |
| 2026-05-05 18:08 | 40.67165 | 38.29381 | 34061 ft | 486 kts | 237° |
| 2026-05-05 18:09 | 40.65385 | 38.25542 | 34049 ft | 497 kts | 237° |
| 2026-05-05 18:09 | 40.61719 | 38.17649 | 34042 ft | 509 kts | 237° |
| 2026-05-05 18:10 | 40.58002 | 38.09669 | 34035 ft | 512 kts | 237° |
| 2026-05-05 18:10 | 40.54267 | 38.01673 | 34026 ft | 513 kts | 237° |
| 2026-05-05 18:11 | 40.50507 | 37.93642 | 34034 ft | 516 kts | 237° |
| 2026-05-05 18:11 | 40.46758 | 37.85655 | 34030 ft | 516 kts | 237° |
| 2026-05-05 18:12 | 40.42973 | 37.77616 | 34031 ft | 517 kts | 237° |
| 2026-05-05 18:12 | 40.39215 | 37.69650 | 34029 ft | 517 kts | 237° |
| 2026-05-05 18:13 | 40.35424 | 37.61638 | 34029 ft | 517 kts | 237° |
| 2026-05-05 18:13 | 40.31627 | 37.53632 | 34021 ft | 515 kts | 237° |
| 2026-05-05 18:14 | 40.27830 | 37.45649 | 34022 ft | 515 kts | 237° |
| 2026-05-05 18:14 | 40.24055 | 37.37731 | 34027 ft | 516 kts | 237° |
| 2026-05-05 18:15 | 40.19617 | 37.30424 | 34008 ft | 513 kts | 223° |
| 2026-05-05 18:15 | 40.14037 | 37.24579 | 34015 ft | 513 kts | 217° |
| 2026-05-05 18:16 | 40.08395 | 37.18859 | 34014 ft | 514 kts | 217° |
| 2026-05-05 18:16 | 40.02733 | 37.13172 | 34006 ft | 511 kts | 217° |
| 2026-05-05 18:17 | 39.97138 | 37.07542 | 33998 ft | 511 kts | 218° |
| 2026-05-05 18:17 | 39.91499 | 37.01890 | 33991 ft | 512 kts | 218° |
| 2026-05-05 18:18 | 39.85907 | 36.96293 | 33567 ft | 485 kts | 217° |
| 2026-05-05 18:18 | 39.83303 | 36.93690 | 32956 ft | 462 kts | 217° |
| 2026-05-05 18:18 | 39.80775 | 36.91169 | 32352 ft | 454 kts | 217° |
| 2026-05-05 18:18 | 39.78356 | 36.88523 | 31738 ft | 458 kts | 224° |
| 2026-05-05 18:19 | 39.76169 | 36.85500 | 31156 ft | 459 kts | 227° |
| 2026-05-05 18:19 | 39.74007 | 36.82504 | 30560 ft | 460 kts | 226° |
| 2026-05-05 18:19 | 39.71813 | 36.79509 | 29930 ft | 453 kts | 226° |
| 2026-05-05 18:19 | 39.69660 | 36.76562 | 29310 ft | 448 kts | 226° |
| 2026-05-05 18:20 | 39.67529 | 36.73620 | 28718 ft | 444 kts | 227° |
| 2026-05-05 18:20 | 39.66131 | 36.71688 | 28334 ft | 442 kts | 227° |
| 2026-05-05 18:20 | 39.63309 | 36.67820 | 27557 ft | 438 kts | 227° |
| 2026-05-05 18:20 | 39.61227 | 36.64974 | 26984 ft | 433 kts | 227° |
| 2026-05-05 18:21 | 39.59174 | 36.62159 | 26419 ft | 429 kts | 227° |
| 2026-05-05 18:21 | 39.57816 | 36.60296 | 26047 ft | 426 kts | 226° |
| 2026-05-05 18:21 | 39.55783 | 36.57515 | 25488 ft | 423 kts | 226° |
| 2026-05-05 18:21 | 39.53764 | 36.54759 | 24932 ft | 420 kts | 226° |
| 2026-05-05 18:22 | 39.51764 | 36.52030 | 24381 ft | 415 kts | 226° |
| 2026-05-05 18:22 | 39.49773 | 36.49314 | 23836 ft | 412 kts | 226° |
| 2026-05-05 18:22 | 39.47797 | 36.46623 | 23267 ft | 410 kts | 226° |
| 2026-05-05 18:22 | 39.45865 | 36.44000 | 22738 ft | 408 kts | 226° |
| 2026-05-05 18:23 | 39.43924 | 36.41366 | 22218 ft | 403 kts | 226° |
| 2026-05-05 18:23 | 39.41988 | 36.38737 | 21691 ft | 399 kts | 226° |
| 2026-05-05 18:23 | 39.40068 | 36.36132 | 21165 ft | 401 kts | 227° |
| 2026-05-05 18:23 | 39.38145 | 36.33526 | 20652 ft | 399 kts | 227° |
| 2026-05-05 18:24 | 39.36235 | 36.30943 | 20134 ft | 396 kts | 227° |
| 2026-05-05 18:24 | 39.34339 | 36.28378 | 19620 ft | 394 kts | 227° |
| 2026-05-05 18:24 | 39.32453 | 36.25828 | 19108 ft | 391 kts | 227° |
| 2026-05-05 18:24 | 39.30601 | 36.23328 | 18604 ft | 389 kts | 227° |
| 2026-05-05 18:25 | 39.28734 | 36.20809 | 18070 ft | 387 kts | 227° |
| 2026-05-05 18:25 | 39.27480 | 36.19118 | 17718 ft | 387 kts | 227° |
| 2026-05-05 18:25 | 39.25021 | 36.15805 | 17046 ft | 383 kts | 227° |
| 2026-05-05 18:25 | 39.23186 | 36.13335 | 16549 ft | 381 kts | 227° |
| 2026-05-05 18:26 | 39.21360 | 36.10880 | 16050 ft | 378 kts | 227° |
| 2026-05-05 18:26 | 39.19541 | 36.08436 | 15543 ft | 375 kts | 227° |
| 2026-05-05 18:26 | 39.17740 | 36.06018 | 15051 ft | 372 kts | 227° |
| 2026-05-05 18:26 | 39.15949 | 36.03615 | 14565 ft | 370 kts | 227° |
| 2026-05-05 18:27 | 39.14095 | 36.01315 | 14075 ft | 369 kts | 224° |
| 2026-05-05 18:27 | 39.12283 | 35.99047 | 13578 ft | 365 kts | 226° |
| 2026-05-05 18:27 | 39.10495 | 35.96723 | 13090 ft | 363 kts | 226° |
| 2026-05-05 18:27 | 39.08693 | 35.94464 | 12605 ft | 360 kts | 225° |
| 2026-05-05 18:28 | 39.05106 | 35.90045 | 11676 ft | 354 kts | 226° |
| 2026-05-05 18:28 | 39.03350 | 35.87840 | 11212 ft | 348 kts | 226° |
| 2026-05-05 18:28 | 39.01642 | 35.85868 | 10754 ft | 323 kts | 219° |
| 2026-05-05 18:29 | 38.99655 | 35.84697 | 10326 ft | 307 kts | 197° |
| 2026-05-05 18:29 | 38.97561 | 35.84456 | 9944 ft | 301 kts | 177° |
| 2026-05-05 18:29 | 38.95515 | 35.84971 | 9559 ft | 298 kts | 167° |
| 2026-05-05 18:29 | 38.93497 | 35.85598 | 9174 ft | 297 kts | 167° |
| 2026-05-05 18:30 | 38.91529 | 35.86199 | 8985 ft | 290 kts | 168° |
| 2026-05-05 18:30 | 38.89542 | 35.86801 | 8996 ft | 294 kts | 168° |
| 2026-05-05 18:30 | 38.87523 | 35.87209 | 8933 ft | 294 kts | 183° |
| 2026-05-05 18:30 | 38.85588 | 35.86524 | 8905 ft | 289 kts | 208° |
| 2026-05-05 18:31 | 38.84081 | 35.84871 | 8580 ft | 283 kts | 235° |
| 2026-05-05 18:31 | 38.83264 | 35.82628 | 8236 ft | 275 kts | 257° |
| 2026-05-05 18:31 | 38.82848 | 35.80241 | 7908 ft | 274 kts | 260° |
| 2026-05-05 18:31 | 38.82426 | 35.77907 | 7691 ft | 269 kts | 259° |
| 2026-05-05 18:32 | 38.81976 | 35.75560 | 7368 ft | 271 kts | 258° |
| 2026-05-05 18:32 | 38.81528 | 35.73222 | 6997 ft | 268 kts | 258° |
| 2026-05-05 18:32 | 38.81090 | 35.70920 | 6659 ft | 260 kts | 258° |
| 2026-05-05 18:32 | 38.80685 | 35.68807 | 6306 ft | 230 kts | 258° |
| 2026-05-05 18:33 | 38.80313 | 35.66862 | 6020 ft | 216 kts | 258° |
| 2026-05-05 18:33 | 38.79971 | 35.65067 | 5714 ft | 193 kts | 258° |
| 2026-05-05 18:33 | 38.79692 | 35.63573 | 5462 ft | 159 kts | 258° |
| 2026-05-05 18:33 | 38.79442 | 35.62257 | 5262 ft | 143 kts | 258° |
| 2026-05-05 18:34 | 38.79218 | 35.61072 | 5083 ft | 131 kts | 259° |
| 2026-05-05 18:34 | 38.79010 | 35.59961 | 4901 ft | 127 kts | 257° |
| 2026-05-05 18:34 | 38.78806 | 35.58877 | 4736 ft | 123 kts | 257° |
| 2026-05-05 18:34 | 38.78612 | 35.57822 | 4550 ft | 122 kts | 258° |
| 2026-05-05 18:35 | 38.78415 | 35.56757 | 4367 ft | 123 kts | 256° |
| 2026-05-05 18:35 | 38.78199 | 35.55697 | 4211 ft | 123 kts | 256° |
| 2026-05-05 18:35 | 38.77994 | 35.54632 | 4055 ft | 123 kts | 257° |
| 2026-05-05 18:35 | 38.77796 | 35.53571 | 3882 ft | 123 kts | 257° |
| 2026-05-05 18:36 | 38.77605 | 35.52535 | 3726 ft | 119 kts | 256° |
| 2026-05-05 18:36 | 38.77415 | 35.51521 | 3551 ft | 115 kts | 256° |
| 2026-05-05 18:36 | 38.77228 | 35.50540 | 3468 ft | 110 kts | 256° |
| 2026-05-05 18:36 | 38.77067 | 35.49674 | 3462 ft | 84 kts | 256° |
| 2026-05-05 18:37 | 38.76973 | 35.49186 | 3462 ft | 34 kts | 256° |
| 2026-05-05 18:37 | 38.76918 | 35.48889 | 3463 ft | 34 kts | 256° |
| 2026-05-05 18:37 | 38.76870 | 35.48647 | 3464 ft | 25 kts | 256° |
| 2026-05-05 18:37 | 38.76839 | 35.48612 | 3464 ft | 7 kts | 162° |
| 2026-05-05 18:38 | 38.76791 | 35.48631 | 3465 ft | 4 kts | 163° |
| 2026-05-05 18:38 | 38.76765 | 35.48641 | 3465 ft | 7 kts | 163° |
| 2026-05-05 18:38 | 38.76728 | 35.48632 | 3465 ft | 7 kts | 231° |
| 2026-05-05 18:38 | 38.76713 | 35.48557 | 3465 ft | 8 kts | 258° |
| 2026-05-05 18:39 | 38.76699 | 35.48477 | 3465 ft | 11 kts | 257° |
| 2026-05-05 18:39 | 38.76670 | 35.48440 | 3465 ft | 7 kts | 158° |
| 2026-05-05 18:39 | 38.76623 | 35.48467 | 3465 ft | 4 kts | 136° |
| 2026-05-05 18:39 | 38.76635 | 35.48481 | 3465 ft | 6 kts | 0° |
| 2026-05-05 18:40 | 38.76647 | 35.48477 | 3465 ft | 0 kts | 341° |
| 2026-05-05 18:40 | 38.76655 | 35.48473 | 3465 ft | 1 kts | 347° |
| 2026-05-05 18:50 | 38.76661 | 35.48464 | 3465 ft | 5 kts | 306° |
| 2026-05-05 18:50 | 38.76672 | 35.48457 | 3465 ft | 1 kts | 24° |
| 2026-05-05 18:50 | 38.76667 | 35.48469 | 3465 ft | 5 kts | 137° |
| 2026-05-05 18:51 | 38.76633 | 35.48481 | 3465 ft | 2 kts | 167° |
| 2026-05-05 18:51 | 38.76625 | 35.48484 | 3465 ft | 1 kts | 166° |
| 2026-05-05 18:51 | 38.76621 | 35.48485 | 3465 ft | 1 kts | 166° |
| 2026-05-05 18:51 | 38.76619 | 35.48486 | 3465 ft | 0 kts | 166° |